createdAt,value
2023-03-26T00:01:33.939Z,92.74
2023-03-26T00:04:03.398Z,92.75
2023-03-26T00:06:35.006Z,92.61
2023-03-26T00:09:02.290Z,92.39
2023-03-26T00:11:30.299Z,92.48
2023-03-26T00:13:58.389Z,92.99
2023-03-26T00:16:29.332Z,92.73
2023-03-26T00:18:57.798Z,92.80
2023-03-26T00:21:29.221Z,92.83
2023-03-26T00:23:58.689Z,92.80
2023-03-26T00:26:26.151Z,92.57
2023-03-26T00:28:54.751Z,92.82
2023-03-26T00:31:22.585Z,92.43
2023-03-26T00:33:54.477Z,92.54
2023-03-26T00:36:23.376Z,92.67
2023-03-26T00:38:53.968Z,92.53
2023-03-26T00:41:31.224Z,92.60
2023-03-26T00:44:00.524Z,92.38
2023-03-26T00:46:29.734Z,92.39
2023-03-26T00:49:00.270Z,92.45
2023-03-26T00:51:28.875Z,92.48
2023-03-26T00:53:58.527Z,92.41
2023-03-26T00:56:26.815Z,92.43
2023-03-26T00:58:54.201Z,92.26
2023-03-26T01:01:29.215Z,91.97
2023-03-26T01:04:08.814Z,92.11
2023-03-26T01:06:42.272Z,92.42
2023-03-26T01:09:16.121Z,92.13
2023-03-26T01:11:43.535Z,92.22
2023-03-26T01:14:14.800Z,92.31
2023-03-26T01:16:50.069Z,92.20
2023-03-26T01:19:25.990Z,92.97
2023-03-26T01:21:53.541Z,93.03
2023-03-26T01:24:22.329Z,92.56
2023-03-26T01:27:04.707Z,92.59
2023-03-26T01:29:39.445Z,92.69
2023-03-26T01:32:18.599Z,92.26
2023-03-26T01:35:00.537Z,92.77
2023-03-26T01:37:40.587Z,92.61
2023-03-26T01:40:15.382Z,93.00
2023-03-26T01:42:49.301Z,92.61
2023-03-26T01:45:21.559Z,93.24
2023-03-26T01:47:50.094Z,92.86
2023-03-26T01:50:17.529Z,92.40
2023-03-26T01:52:44.788Z,92.60
2023-03-26T01:55:14.541Z,92.52
2023-03-26T01:57:53.436Z,92.19
2023-03-26T02:00:25.967Z,92.06
2023-03-26T02:03:04.986Z,92.25
2023-03-26T02:05:35.897Z,92.14
2023-03-26T02:08:13.071Z,91.73
2023-03-26T02:10:45.451Z,92.02
2023-03-26T02:13:13.673Z,91.42
2023-03-26T02:15:41.519Z,91.64
2023-03-26T02:18:13.559Z,91.24
2023-03-26T02:20:40.816Z,91.26
2023-03-26T02:23:08.913Z,91.63
2023-03-26T02:25:39.940Z,91.60
2023-03-26T02:28:08.708Z,91.70
2023-03-26T02:30:36.181Z,91.70
2023-03-26T02:33:03.849Z,92.18
2023-03-26T02:35:40.288Z,92.58
2023-03-26T02:38:10.201Z,92.34
2023-03-26T02:40:37.599Z,92.29
2023-03-26T02:43:05.563Z,92.21
2023-03-26T02:45:35.217Z,92.53
2023-03-26T02:48:06.098Z,92.75
2023-03-26T02:50:59.503Z,92.44
2023-03-26T02:53:39.625Z,92.85
2023-03-26T02:56:39.096Z,92.42
2023-03-26T02:59:27.227Z,92.55
2023-03-26T03:02:19.513Z,92.88
2023-03-26T03:04:47.655Z,92.91
2023-03-26T03:07:16.016Z,92.93
2023-03-26T03:09:43.610Z,92.41
2023-03-26T03:12:33.859Z,92.75
2023-03-26T03:15:01.346Z,92.85
2023-03-26T03:17:31.398Z,92.79
2023-03-26T03:19:58.759Z,92.24
2023-03-26T03:22:26.231Z,92.76
2023-03-26T03:24:57.785Z,92.40
2023-03-26T03:27:26.311Z,92.96
2023-03-26T03:30:09.665Z,92.46
2023-03-26T03:32:47.986Z,92.40
2023-03-26T03:35:19.952Z,92.24
2023-03-26T03:37:51.410Z,92.69
2023-03-26T03:40:19.965Z,92.70
2023-03-26T03:42:47.590Z,92.60
2023-03-26T03:45:22.111Z,92.16
2023-03-26T03:48:13.792Z,92.46
2023-03-26T03:50:45.004Z,92.78
2023-03-26T03:53:26.075Z,92.63
2023-03-26T03:55:55.646Z,92.87
2023-03-26T03:58:28.323Z,92.48
2023-03-26T04:01:04.432Z,92.54
2023-03-26T04:03:53.410Z,92.48
2023-03-26T04:06:25.390Z,92.88
2023-03-26T04:08:54.455Z,92.54
2023-03-26T04:11:22.870Z,92.84
2023-03-26T04:14:13.057Z,92.47
2023-03-26T04:17:06.380Z,92.49
2023-03-26T04:19:38.617Z,92.24
2023-03-26T04:22:09.526Z,92.81
2023-03-26T04:24:45.358Z,92.63
2023-03-26T04:27:35.543Z,92.25
2023-03-26T04:30:17.319Z,92.25
2023-03-26T04:32:49.132Z,93.24
2023-03-26T04:35:19.700Z,92.89
2023-03-26T04:37:53.197Z,92.49
2023-03-26T04:40:30.655Z,92.85
2023-03-26T04:43:18.599Z,92.93
2023-03-26T04:46:18.750Z,93.44
2023-03-26T04:48:52.897Z,93.87
2023-03-26T04:51:26.030Z,93.11
2023-03-26T04:53:57.945Z,93.97
2023-03-26T04:56:43.543Z,93.74
2023-03-26T04:59:30.497Z,93.36
2023-03-26T05:02:00.272Z,93.69
2023-03-26T05:04:36.904Z,93.40
2023-03-26T05:07:06.248Z,93.73
2023-03-26T05:09:42.965Z,93.67
2023-03-26T05:12:23.726Z,93.46
2023-03-26T05:14:57.055Z,94.02
2023-03-26T05:17:43.070Z,94.26
2023-03-26T05:20:23.545Z,93.88
2023-03-26T05:22:53.985Z,93.79
2023-03-26T05:25:34.932Z,94.56
2023-03-26T05:28:04.144Z,94.21
2023-03-26T05:30:43.634Z,93.72
2023-03-26T05:33:11.392Z,93.96
2023-03-26T05:35:46.647Z,94.41
2023-03-26T05:38:15.667Z,94.01
2023-03-26T05:40:43.015Z,94.30
2023-03-26T05:43:15.703Z,94.50
2023-03-26T05:45:49.180Z,94.41
2023-03-26T05:48:21.815Z,94.56
2023-03-26T05:50:49.627Z,94.52
2023-03-26T05:53:20.518Z,94.27
2023-03-26T05:55:58.320Z,94.75
2023-03-26T05:58:49.370Z,94.70
2023-03-26T06:01:36.578Z,94.78
2023-03-26T06:04:22.159Z,94.71
2023-03-26T06:07:12.886Z,94.51
2023-03-26T06:09:45.924Z,94.00
2023-03-26T06:12:14.424Z,94.06
2023-03-26T06:14:47.281Z,93.82
2023-03-26T06:17:28.121Z,93.92
2023-03-26T06:20:21.508Z,94.47
2023-03-26T06:22:51.030Z,94.61
2023-03-26T06:25:38.833Z,94.32
2023-03-26T06:28:16.128Z,94.36
2023-03-26T06:31:01.944Z,94.32
2023-03-26T06:33:51.473Z,94.31
2023-03-26T06:36:18.956Z,94.17
2023-03-26T06:38:49.358Z,94.40
2023-03-26T06:41:18.401Z,94.36
2023-03-26T06:44:21.428Z,94.24
2023-03-26T06:47:11.790Z,94.73
2023-03-26T06:50:02.313Z,94.75
2023-03-26T06:52:36.060Z,94.75
2023-03-26T06:55:31.500Z,94.46
2023-03-26T06:58:24.420Z,94.52
2023-03-26T07:01:10.558Z,94.83
2023-03-26T07:03:56.245Z,94.78
2023-03-26T07:06:46.092Z,94.37
2023-03-26T07:09:52.236Z,95.02
2023-03-26T07:12:39.525Z,94.74
2023-03-26T07:15:37.853Z,95.32
2023-03-26T07:18:31.203Z,94.73
2023-03-26T07:20:59.724Z,94.74
2023-03-26T07:23:32.014Z,94.80
2023-03-26T07:26:28.276Z,95.29
2023-03-26T07:29:18.367Z,94.90
2023-03-26T07:32:19.147Z,95.42
2023-03-26T07:34:58.108Z,95.34
2023-03-26T07:37:46.565Z,95.29
2023-03-26T07:40:42.040Z,95.48
2023-03-26T07:43:46.528Z,95.40
2023-03-26T07:46:37.221Z,95.60
2023-03-26T07:49:30.396Z,95.59
2023-03-26T07:52:15.533Z,95.76
2023-03-26T07:55:19.663Z,95.81
2023-03-26T07:58:20.166Z,95.70
2023-03-26T08:01:15.747Z,96.46
2023-03-26T08:04:24.056Z,96.27
2023-03-26T08:07:30.144Z,96.30
2023-03-26T08:10:22.168Z,96.14
2023-03-26T08:13:06.294Z,96.88
2023-03-26T08:15:39.341Z,96.54
2023-03-26T08:18:27.543Z,96.23
2023-03-26T08:20:58.677Z,96.67
2023-03-26T08:23:34.254Z,96.97
2023-03-26T08:26:09.568Z,96.72
2023-03-26T08:28:48.735Z,96.24
2023-03-26T08:31:18.376Z,96.36
2023-03-26T08:33:46.013Z,96.54
2023-03-26T08:36:13.433Z,96.80
2023-03-26T08:38:42.145Z,96.73
2023-03-26T08:41:40.492Z,97.24
2023-03-26T08:44:48.944Z,96.97
2023-03-26T08:47:45.812Z,96.58
2023-03-26T08:50:44.547Z,96.81
2023-03-26T08:53:39.466Z,97.05
2023-03-26T08:56:24.287Z,97.21
2023-03-26T08:59:28.802Z,97.10
2023-03-26T09:02:26.958Z,97.51
2023-03-26T09:05:36.347Z,97.76
2023-03-26T09:08:53.663Z,97.77
2023-03-26T09:12:04.243Z,97.84
2023-03-26T09:15:16.534Z,97.75
2023-03-26T09:18:26.386Z,97.40
2023-03-26T09:21:39.372Z,98.06
2023-03-26T09:24:30.100Z,97.87
2023-03-26T09:27:11.329Z,97.77
2023-03-26T09:30:27.048Z,98.48
2023-03-26T09:33:38.495Z,98.50
2023-03-26T09:36:43.243Z,98.21
2023-03-26T09:39:18.057Z,98.09
2023-03-26T09:42:00.583Z,98.08
2023-03-26T09:44:58.098Z,98.02
2023-03-26T09:47:58.610Z,98.82
2023-03-26T09:50:35.746Z,98.05
2023-03-26T09:53:40.508Z,98.57
2023-03-26T09:56:22.888Z,98.33
2023-03-26T09:59:16.977Z,99.19
2023-03-26T10:01:57.457Z,98.68
2023-03-26T10:04:54.454Z,99.19
2023-03-26T10:07:46.376Z,98.61
2023-03-26T10:10:25.563Z,99.32
2023-03-26T10:13:08.345Z,99.43
2023-03-26T10:15:58.616Z,99.05
2023-03-26T10:18:38.889Z,99.18
2023-03-26T10:21:11.938Z,99.32
2023-03-26T10:23:57.066Z,99.28
2023-03-26T10:26:40.415Z,99.19
2023-03-26T10:29:34.799Z,99.49
2023-03-26T10:32:16.312Z,99.68
2023-03-26T10:35:03.345Z,99.45
2023-03-26T10:37:41.578Z,99.68
2023-03-26T10:40:23.761Z,99.64
2023-03-26T10:43:14.826Z,99.92
2023-03-26T10:46:19.376Z,100.00
2023-03-26T10:49:19.245Z,99.82
2023-03-26T10:51:53.610Z,99.93
2023-03-26T10:54:33.993Z,100.00
2023-03-26T10:57:03.648Z,100.00
2023-03-26T10:59:31.305Z,100.00
2023-03-26T11:02:13.602Z,99.95
2023-03-26T11:04:54.279Z,100.00
2023-03-26T11:07:28.885Z,100.00
2023-03-26T11:10:03.465Z,100.00
2023-03-26T11:12:40.755Z,100.00
2023-03-26T11:15:23.008Z,100.00
2023-03-26T11:18:01.374Z,100.00
2023-03-26T11:20:37.755Z,100.00
2023-03-26T11:23:24.504Z,100.00
2023-03-26T11:26:04.800Z,100.00
2023-03-26T11:29:03.309Z,100.00
2023-03-26T11:31:44.440Z,100.00
2023-03-26T11:34:16.547Z,99.92
2023-03-26T11:36:48.329Z,99.96
2023-03-26T11:39:24.000Z,99.70
2023-03-26T11:41:57.049Z,99.81
2023-03-26T11:44:34.704Z,99.83
2023-03-26T11:47:10.386Z,99.74
2023-03-26T11:49:40.140Z,99.67
2023-03-26T11:52:11.361Z,100.00
2023-03-26T11:54:40.226Z,100.00
2023-03-26T11:57:13.227Z,99.78
2023-03-26T11:59:55.632Z,99.69
2023-03-26T12:02:29.680Z,99.71
2023-03-26T12:05:12.505Z,100.00
2023-03-26T12:07:46.693Z,100.00
2023-03-26T12:10:38.225Z,99.84
2023-03-26T12:13:28.370Z,100.00
2023-03-26T12:15:59.550Z,100.00
2023-03-26T12:18:28.634Z,100.00
2023-03-26T12:21:05.741Z,100.00
2023-03-26T12:23:50.470Z,99.72
2023-03-26T12:26:20.899Z,100.00
2023-03-26T12:28:50.118Z,100.00
2023-03-26T12:31:19.319Z,99.91
2023-03-26T12:34:04.573Z,100.00
2023-03-26T12:36:33.877Z,100.00
2023-03-26T12:40:09.270Z,100.00
2023-03-26T12:44:50.878Z,100.00
2023-03-26T12:45:15.827Z,99.78
2023-03-26T12:47:58.863Z,100.00
2023-03-26T12:50:43.881Z,99.86
2023-03-26T12:53:29.266Z,100.00
2023-03-26T12:56:07.649Z,99.80
2023-03-26T12:58:59.438Z,100.00
2023-03-26T13:01:39.011Z,99.93
2023-03-26T13:04:25.058Z,99.57
2023-03-26T13:07:00.156Z,100.00
2023-03-26T13:09:52.886Z,100.00
2023-03-26T13:12:34.569Z,100.00
2023-03-26T13:15:25.707Z,100.00
2023-03-26T13:18:07.748Z,100.00
2023-03-26T13:20:49.660Z,99.93
2023-03-26T13:23:28.024Z,100.00
2023-03-26T13:26:04.779Z,99.89
2023-03-26T13:28:40.595Z,100.00
2023-03-26T13:31:16.620Z,99.89
2023-03-26T13:33:56.417Z,100.00
2023-03-26T13:36:33.609Z,100.00
2023-03-26T13:39:18.899Z,100.00
2023-03-26T13:42:02.566Z,100.00
2023-03-26T13:44:38.199Z,100.00
2023-03-26T13:47:13.608Z,100.00
2023-03-26T13:49:44.231Z,100.00
2023-03-26T13:52:15.452Z,100.00
2023-03-26T13:54:49.302Z,99.97
2023-03-26T13:57:24.928Z,100.00
2023-03-26T13:59:56.038Z,100.00
2023-03-26T14:02:33.165Z,100.00
2023-03-26T14:05:06.841Z,99.98
2023-03-26T14:07:39.352Z,100.00
2023-03-26T14:10:12.030Z,100.00
2023-03-26T14:12:53.914Z,100.00
2023-03-26T14:15:26.795Z,100.00
2023-03-26T14:18:03.705Z,100.00
2023-03-26T14:20:56.851Z,100.00
2023-03-26T14:23:42.950Z,100.00
2023-03-26T14:26:21.756Z,99.82
2023-03-26T14:29:24.106Z,100.00
2023-03-26T14:32:07.692Z,100.00
2023-03-26T14:34:52.939Z,99.98
2023-03-26T14:37:47.848Z,100.00
2023-03-26T14:40:50.081Z,99.89
2023-03-26T14:43:53.227Z,100.00
2023-03-26T14:46:42.354Z,100.00
2023-03-26T14:49:41.489Z,99.87
2023-03-26T14:52:18.432Z,99.98
2023-03-26T14:54:49.862Z,100.00
2023-03-26T14:58:02.065Z,100.00
2023-03-26T15:01:04.197Z,100.00
2023-03-26T15:04:28.478Z,99.82
2023-03-26T15:07:30.287Z,100.00
2023-03-26T15:10:30.978Z,100.00
2023-03-26T15:13:12.123Z,99.83
2023-03-26T15:16:01.480Z,100.00
2023-03-26T15:18:56.673Z,100.00
2023-03-26T15:21:51.293Z,99.70
2023-03-26T15:24:49.779Z,100.00
2023-03-26T15:27:38.962Z,100.00
2023-03-26T15:30:47.833Z,100.00
2023-03-26T15:34:01.864Z,100.00
2023-03-26T15:37:13.326Z,100.00
2023-03-26T15:40:14.709Z,99.97
2023-03-26T15:42:51.760Z,100.00
2023-03-26T15:45:35.059Z,100.00
2023-03-26T15:48:39.403Z,100.00
2023-03-26T15:51:22.779Z,100.00
2023-03-26T15:53:57.894Z,99.96
2023-03-26T15:56:38.939Z,100.00
2023-03-26T15:59:17.538Z,100.00
2023-03-26T16:02:02.598Z,100.00
2023-03-26T16:04:50.465Z,100.00
2023-03-26T16:07:44.123Z,100.00
2023-03-26T16:10:20.796Z,100.00
2023-03-26T16:12:56.072Z,100.00
2023-03-26T16:15:29.902Z,100.00
2023-03-26T16:18:27.721Z,100.00
2023-03-26T16:21:04.656Z,100.00
2023-03-26T16:23:47.687Z,100.00
2023-03-26T16:26:22.218Z,100.00
2023-03-26T16:29:18.387Z,100.00
2023-03-26T16:32:09.163Z,100.00
2023-03-26T16:34:45.762Z,100.00
2023-03-26T16:37:43.949Z,100.00
2023-03-26T16:40:35.767Z,100.00
2023-03-26T16:43:19.113Z,100.00
2023-03-26T16:45:53.384Z,100.00
2023-03-26T16:48:29.672Z,100.00
2023-03-26T16:51:05.026Z,100.00
2023-03-26T16:53:41.878Z,100.00
2023-03-26T16:56:18.013Z,100.00
2023-03-26T16:58:58.810Z,100.00
2023-03-26T17:01:41.437Z,100.00
2023-03-26T17:04:17.269Z,100.00
2023-03-26T17:07:14.148Z,100.00
2023-03-26T17:09:55.842Z,100.00
2023-03-26T17:12:35.262Z,100.00
2023-03-26T17:15:13.468Z,100.00
2023-03-26T17:18:02.428Z,100.00
2023-03-26T17:20:36.943Z,100.00
2023-03-26T17:23:23.228Z,100.00
2023-03-26T17:26:03.057Z,100.00
2023-03-26T17:28:50.984Z,100.00
2023-03-26T17:31:26.756Z,100.00
2023-03-26T17:33:54.837Z,100.00
2023-03-26T17:36:41.102Z,100.00
2023-03-26T17:39:50.156Z,100.00
2023-03-26T17:42:26.498Z,100.00
2023-03-26T17:44:55.802Z,100.00
2023-03-26T17:47:29.975Z,100.00
2023-03-26T17:50:01.708Z,100.00
2023-03-26T17:52:48.105Z,100.00
2023-03-26T17:55:19.753Z,100.00
2023-03-26T17:57:51.719Z,100.00
2023-03-26T18:00:23.720Z,100.00
2023-03-26T18:02:56.301Z,100.00
2023-03-26T18:05:27.153Z,100.00
2023-03-26T18:08:36.122Z,100.00
2023-03-26T18:11:38.470Z,100.00
2023-03-26T18:14:50.782Z,100.00
2023-03-26T18:17:19.324Z,100.00
2023-03-26T18:19:49.048Z,100.00
2023-03-26T18:22:20.970Z,100.00
2023-03-26T18:24:48.999Z,100.00
2023-03-26T18:27:18.949Z,100.00
2023-03-26T18:30:02.221Z,100.00
2023-03-26T18:32:34.099Z,100.00
2023-03-26T18:35:13.594Z,100.00
2023-03-26T18:37:44.320Z,100.00
2023-03-26T18:40:16.818Z,100.00
2023-03-26T18:42:46.277Z,100.00
2023-03-26T18:45:27.589Z,100.00
2023-03-26T18:47:58.722Z,100.00
2023-03-26T18:50:28.241Z,100.00
2023-03-26T18:52:59.385Z,100.00
2023-03-26T18:55:29.196Z,100.00
2023-03-26T18:57:57.846Z,100.00
2023-03-26T19:00:27.967Z,100.00
2023-03-26T19:03:04.756Z,100.00
2023-03-26T19:05:34.085Z,100.00
2023-03-26T19:08:03.763Z,100.00
2023-03-26T19:10:33.203Z,100.00
2023-03-26T19:13:02.899Z,100.00
2023-03-26T19:15:32.568Z,100.00
2023-03-26T19:18:07.593Z,100.00
2023-03-26T19:20:40.708Z,100.00
2023-03-26T19:23:13.489Z,100.00
2023-03-26T19:25:43.316Z,100.00
2023-03-26T19:28:20.376Z,100.00
2023-03-26T19:30:52.742Z,100.00
2023-03-26T19:33:21.989Z,100.00
2023-03-26T19:35:54.380Z,100.00
2023-03-26T19:38:24.618Z,100.00
2023-03-26T19:40:54.538Z,100.00
2023-03-26T19:43:22.797Z,100.00
2023-03-26T19:46:00.866Z,100.00
2023-03-26T19:48:45.358Z,100.00
2023-03-26T19:51:22.457Z,100.00
2023-03-26T19:53:54.088Z,100.00
2023-03-26T19:56:22.308Z,100.00
2023-03-26T19:58:52.900Z,100.00
2023-03-26T20:01:23.822Z,100.00
2023-03-26T20:03:55.641Z,100.00
2023-03-26T20:06:33.892Z,100.00
2023-03-26T20:09:11.005Z,100.00
2023-03-26T20:11:39.927Z,100.00
2023-03-26T20:14:13.517Z,100.00
2023-03-26T20:16:42.930Z,100.00
2023-03-26T20:19:14.333Z,100.00
2023-03-26T20:21:42.439Z,100.00
2023-03-26T20:24:12.862Z,100.00
2023-03-26T20:26:40.262Z,100.00
2023-03-26T20:29:07.568Z,100.00
2023-03-26T20:31:35.188Z,100.00
2023-03-26T20:34:02.595Z,99.88
2023-03-26T20:36:34.127Z,100.00
2023-03-26T20:39:02.480Z,100.00
2023-03-26T20:41:29.776Z,100.00
2023-03-26T20:43:57.214Z,100.00
2023-03-26T20:46:31.202Z,100.00
2023-03-26T20:48:59.973Z,100.00
2023-03-26T20:51:30.855Z,100.00
2023-03-26T20:54:00.713Z,100.00
2023-03-26T20:56:28.369Z,100.00
2023-03-26T20:59:09.750Z,99.95
2023-03-26T21:01:39.140Z,100.00
2023-03-26T21:04:06.612Z,100.00
2023-03-26T21:06:33.953Z,100.00
2023-03-26T21:09:04.235Z,100.00
2023-03-26T21:11:45.377Z,99.93
2023-03-26T21:14:18.795Z,100.00
2023-03-26T21:16:46.874Z,99.54
2023-03-26T21:19:14.751Z,100.00
2023-03-26T21:21:52.948Z,99.89
2023-03-26T21:24:35.957Z,100.00
2023-03-26T21:27:12.116Z,100.00
2023-03-26T21:29:40.376Z,100.00
2023-03-26T21:32:10.603Z,100.00
2023-03-26T21:34:42.061Z,100.00
2023-03-26T21:37:15.506Z,100.00
2023-03-26T21:39:45.273Z,100.00
2023-03-26T21:42:13.618Z,99.86
2023-03-26T21:44:41.490Z,99.94
2023-03-26T21:47:10.076Z,100.00
2023-03-26T21:49:38.697Z,100.00
2023-03-26T21:52:06.791Z,100.00
2023-03-26T21:54:34.665Z,100.00
2023-03-26T21:57:17.755Z,99.86
2023-03-26T21:59:55.860Z,100.00
2023-03-26T22:02:30.147Z,99.83
2023-03-26T22:05:02.258Z,100.00
2023-03-26T22:07:37.612Z,100.00
2023-03-26T22:10:06.689Z,99.72
2023-03-26T22:12:36.160Z,100.00
2023-03-26T22:15:04.827Z,99.76
2023-03-26T22:17:32.929Z,100.00
2023-03-26T22:20:01.602Z,99.97
2023-03-26T22:22:30.933Z,100.00
2023-03-26T22:24:58.381Z,99.68
2023-03-26T22:27:26.658Z,100.00
2023-03-26T22:29:55.448Z,100.00
2023-03-26T22:32:23.253Z,100.00
2023-03-26T22:34:52.199Z,100.00
2023-03-26T22:37:19.703Z,100.00
2023-03-26T22:39:47.209Z,100.00
2023-03-26T22:42:15.861Z,100.00
2023-03-26T22:44:43.366Z,100.00
2023-03-26T22:47:13.650Z,100.00
2023-03-26T22:49:41.028Z,100.00
2023-03-26T22:52:08.523Z,100.00
2023-03-26T22:54:37.152Z,99.76
2023-03-26T22:57:04.690Z,100.00
2023-03-26T22:59:32.412Z,100.00
2023-03-26T23:01:59.931Z,100.00
2023-03-26T23:04:32.213Z,100.00
2023-03-26T23:06:59.877Z,100.00
2023-03-26T23:09:27.230Z,100.00
2023-03-26T23:11:54.643Z,100.00
2023-03-26T23:14:22.279Z,100.00
2023-03-26T23:16:50.160Z,100.00
2023-03-26T23:19:18.086Z,100.00
2023-03-26T23:21:46.977Z,99.63
2023-03-26T23:24:15.773Z,100.00
2023-03-26T23:26:50.553Z,99.92
2023-03-26T23:29:19.136Z,100.00
2023-03-26T23:31:46.583Z,99.98
2023-03-26T23:34:14.323Z,99.41
2023-03-26T23:36:42.441Z,100.00
2023-03-26T23:39:11.235Z,100.00
2023-03-26T23:41:38.796Z,99.97
2023-03-26T23:44:06.218Z,99.94
2023-03-26T23:46:33.685Z,100.00
2023-03-26T23:49:04.611Z,100.00
2023-03-26T23:51:32.880Z,100.00
2023-03-26T23:54:01.614Z,99.98
2023-03-26T23:56:32.115Z,100.00
2023-03-26T23:59:00.758Z,100.00
